Aeroporto :
LOGIN :

Iscrizione | Disclaimer

   EN    FR    IT 

 










Sommario :    VFR   VFR Marginale   IFR   IFR Intensivo   IFR Molto Intensivo
Visibilità : 
Base nubi : 
>= 8 km
>= 3000ft
5 / 8 km
1000 / 3000 ft
1500m / 5 km
500 / 1000 ft
800 / 1500m
200 / 500 ft
< 800m
< 200 ft
Simboli :   Temporali  Nebbia  Neve Forte  Precipitazioni Forti  Vento > 20 kt
SIGMETs :   Varie  Temporali  Ghiacco  Turbolenza  Onda orograficha  Ceneri Vulcaniche






- Altitudine del aeroporto : 357 ft
- Codice IATA : TUF


LFOT - Tours

ULTIMO METAR :
  • 200530Z AUTO 30004KT 9999 SCT006 OVC200 13/12 Q1019 TEMPO BKN008

METARs OBSOLETI :
  • 200500Z AUTO 30005KT CAVOK 13/13 Q1019 TEMPO 4000 SHRA SCT025TCU
  • 200430Z AUTO 28005KT 9999 FEW007 OVC092 14/13 Q1019 TEMPO 4000 SHRA SCT025TCU
  • 200400Z AUTO 28004KT 9999 FEW007 OVC094 14/13 Q1019 TEMPO 4000 SHRA SCT025TCU
  • 200330Z AUTO 29003KT 9999 FEW009 SCT052 OVC088 14/12 Q1019 TEMPO 4000 SHRA SCT025TCU
  • 200300Z AUTO VRB02KT 9999 FEW014 OVC084 14/12 Q1019 TEMPO 4000 SHRA SCT025TCU

TAF TAF LFOT
Valido dal 20 a 06 ore il 21 a 06 ore UTC


200500Z 2006/2106 30006KT CAVOK
TEMPO 2006/2008 BKN008
PROB40
TEMPO 2012/2018 4000 SHRA BKN020 FEW030CB
TEMPO 2021/2106 BKN006



MetMap, La meteo Aeronautica in un colpo d'occhio ! - Copyright ORBIFLY Dicembre 2007 - Disclaimer

ORBIFLY MET'MAP TEAM :

Programmazione e sviluppo : Alexandra Zaïnal
Concezione : Baudouin d'Aumeries
Aiuto per la programmazione : Marc-Olivier Méhu
Supporto tecnico e logistico : Manuel Goepfert
Aiuto per la traduzione : Arnaldo La Scala

Contatto : metmap@orbifly.com




FONTI E CREDITI :

   NOAA